Time;durP1;ratioP1;P1;durP2;ratioP2;P2;SDS_P1;SDS_P2;PMS_P1;PMS_P2;Temp;Humidity;BMP_temperature;BMP_pressure;BME280_temperature;BME280_humidity;BME280_pressure;Samples;Min_cycle;Max_cycle;Signal;HPM_P1;HPM_P2
2021/07/06 00:01:41;;;;;;;3.33;2.13;;;;;;;13.51;100.00;93414.59;5114790;28;20221;-79
2021/07/06 00:04:07;;;;;;;4.50;2.13;;;;;;;13.69;100.00;93417.09;5114675;28;20224;-77
2021/07/06 00:06:34;;;;;;;3.07;2.00;;;;;;;13.96;100.00;93400.09;5114554;28;20193;-78
2021/07/06 00:09:02;;;;;;;2.20;1.80;;;;;;;14.18;100.00;93397.66;5114717;28;20617;-76
2021/07/06 00:11:29;;;;;;;5.63;1.58;;;;;;;14.48;100.00;93394.03;5114635;28;20690;-77
2021/07/06 00:13:57;;;;;;;3.63;1.30;;;;;;;14.76;100.00;93409.81;5114153;28;20569;-76
2021/07/06 00:16:23;;;;;;;4.22;1.60;;;;;;;14.67;100.00;93407.78;5113991;28;20230;-77
2021/07/06 00:18:50;;;;;;;3.00;1.25;;;;;;;14.49;100.00;93411.38;5114190;28;20198;-76
2021/07/06 00:21:16;;;;;;;3.75;1.50;;;;;;;14.21;100.00;93403.22;5114568;28;20200;-77
2021/07/06 00:23:43;;;;;;;4.20;1.55;;;;;;;13.96;100.00;93400.88;5114447;28;20201;-76
2021/07/06 00:26:09;;;;;;;2.90;1.60;;;;;;;13.81;100.00;93405.81;5114439;28;20206;-77
2021/07/06 00:28:36;;;;;;;2.50;1.70;;;;;;;13.87;100.00;93389.94;5106735;28;20221;-78
2021/07/06 00:31:04;;;;;;;4.50;1.40;;;;;;;13.90;100.00;93385.25;5114232;28;20201;-78
2021/07/06 00:33:31;;;;;;;1.58;1.45;;;;;;;13.90;100.00;93380.00;5114116;28;20197;-77
2021/07/06 00:35:59;;;;;;;2.50;1.20;;;;;;;13.74;100.00;93384.13;5114223;28;20225;-78
2021/07/06 00:38:26;;;;;;;2.50;1.40;;;;;;;13.83;100.00;93382.75;5101163;28;20232;-77
2021/07/06 00:40:54;;;;;;;4.28;1.40;;;;;;;13.96;100.00;93379.09;5114108;28;20205;-77
2021/07/06 00:43:21;;;;;;;4.70;1.58;;;;;;;14.01;100.00;93372.13;5114059;28;20198;-77
2021/07/06 00:45:47;;;;;;;4.57;1.45;;;;;;;13.92;100.00;93375.31;5113961;28;20201;-76
2021/07/06 00:48:16;;;;;;;1.92;1.20;;;;;;;14.15;100.00;93374.47;5121036;27;20197;-78
2021/07/06 00:50:43;;;;;;;3.65;1.80;;;;;;;14.28;100.00;93368.97;5114089;28;20204;-76
2021/07/06 00:53:09;;;;;;;2.28;1.30;;;;;;;14.34;100.00;93361.97;5113962;28;20193;-78
2021/07/06 00:55:36;;;;;;;1.80;1.15;;;;;;;14.19;100.00;93362.50;5113839;28;20250;-79
2021/07/06 00:58:02;;;;;;;3.90;1.20;;;;;;;14.03;100.00;93359.53;5111443;28;20281;-80
2021/07/06 01:00:29;;;;;;;3.88;1.50;;;;;;;14.19;100.00;93357.25;5113622;28;20560;-78
2021/07/06 01:02:56;;;;;;;3.42;1.38;;;;;;;14.05;100.00;93348.81;5113874;28;20208;-77
2021/07/06 01:05:25;;;;;;;3.08;1.35;;;;;;;13.91;100.00;93339.63;5114039;28;20204;-76
2021/07/06 01:07:53;;;;;;;3.28;1.17;;;;;;;13.81;100.00;93327.88;5113771;28;20197;-77
2021/07/06 01:10:22;;;;;;;2.13;1.33;;;;;;;13.87;100.00;93329.59;5113961;28;20228;-78
2021/07/06 01:12:49;;;;;;;1.52;1.23;;;;;;;13.83;100.00;93322.41;5113546;28;20197;-78
2021/07/06 01:15:18;;;;;;;6.15;1.33;;;;;;;13.76;100.00;93321.75;5113423;28;20243;-77
2021/07/06 01:17:46;;;;;;;2.67;1.20;;;;;;;13.71;100.00;93319.00;5113446;28;20220;-77
2021/07/06 01:20:15;;;;;;;3.40;1.20;;;;;;;13.59;100.00;93317.19;5113607;28;20197;-75
2021/07/06 01:22:44;;;;;;;1.67;1.30;;;;;;;13.94;100.00;93313.72;5113449;28;20214;-76
2021/07/06 01:25:12;;;;;;;1.50;1.10;;;;;;;14.51;100.00;93310.28;5113474;28;20254;-78
2021/07/06 01:27:39;;;;;;;3.63;1.30;;;;;;;14.47;100.00;93316.25;5113044;28;20200;-78
2021/07/06 01:30:10;;;;;;;1.98;0.98;;;;;;;14.18;100.00;93309.16;5113507;28;20197;-78
2021/07/06 01:32:39;;;;;;;1.25;1.00;;;;;;;14.13;100.00;93310.91;5113443;28;20205;-78
2021/07/06 01:35:07;;;;;;;2.70;1.52;;;;;;;14.16;100.00;93311.25;5113402;28;20243;-79
2021/07/06 01:37:33;;;;;;;2.28;1.23;;;;;;;14.28;100.00;93311.19;5113234;28;20225;-80
2021/07/06 01:40:01;;;;;;;3.97;1.27;;;;;;;14.20;100.00;93306.31;5113199;28;20201;-77
2021/07/06 01:42:27;;;;;;;1.27;1.00;;;;;;;13.99;100.00;93295.44;5113127;28;20200;-76
2021/07/06 01:45:07;;;;;;;1.20;0.95;;;;;;;13.75;100.00;93299.94;5113147;28;20205;-78
2021/07/06 01:47:37;;;;;;;1.90;1.10;;;;;;;13.56;100.00;93309.00;5113052;28;20771;-77
2021/07/06 01:50:04;;;;;;;1.70;1.20;;;;;;;13.40;100.00;93305.25;5113117;28;20652;-77
2021/07/06 01:52:31;;;;;;;5.22;1.23;;;;;;;13.41;100.00;93312.09;5113136;28;20201;-78
2021/07/06 01:54:57;;;;;;;2.33;1.20;;;;;;;13.59;100.00;93319.81;5112731;28;20205;-77
2021/07/06 01:57:25;;;;;;;2.13;1.08;;;;;;;13.72;100.00;93315.34;5113143;28;20229;-77
2021/07/06 01:59:51;;;;;;;1.95;1.00;;;;;;;13.74;100.00;93302.78;5113192;28;20205;-76
2021/07/06 02:02:18;;;;;;;2.30;1.20;;;;;;;13.83;100.00;93304.03;5113118;28;20201;-77
2021/07/06 02:04:46;;;;;;;2.70;1.10;;;;;;;14.03;100.00;93301.81;5112873;28;20656;-77
2021/07/06 02:07:12;;;;;;;1.90;1.10;;;;;;;14.31;100.00;93302.84;5113084;28;20206;-78
2021/07/06 02:09:39;;;;;;;1.95;1.05;;;;;;;14.36;100.00;93299.53;5113195;28;20258;-79
2021/07/06 02:12:06;;;;;;;1.15;1.05;;;;;;;14.31;100.00;93296.81;5113040;28;20205;-77
2021/07/06 02:14:34;;;;;;;1.45;1.23;;;;;;;14.20;100.00;93290.56;5113052;28;20201;-82
2021/07/06 02:17:00;;;;;;;1.70;1.00;;;;;;;14.23;100.00;93295.34;5112916;28;20225;-79
2021/07/06 02:19:26;;;;;;;8.90;1.38;;;;;;;14.34;100.00;93296.31;5112945;28;20197;-78
2021/07/06 02:21:53;;;;;;;2.28;1.30;;;;;;;14.19;100.00;93299.47;5112727;28;20197;-79
2021/07/06 02:24:19;;;;;;;2.17;1.10;;;;;;;14.44;100.00;93286.81;5113173;28;20247;-78
2021/07/06 02:26:46;;;;;;;2.42;1.25;;;;;;;14.52;100.00;93279.56;5112922;28;20210;-78
2021/07/06 02:29:12;;;;;;;1.85;1.00;;;;;;;14.61;100.00;93280.81;5099280;28;20237;-78
2021/07/06 02:31:40;;;;;;;1.40;0.90;;;;;;;15.41;100.00;93284.13;5092507;28;20244;-78
2021/07/06 02:34:06;;;;;;;1.77;0.90;;;;;;;15.72;100.00;93287.13;5093004;28;20198;-77
2021/07/06 02:36:33;;;;;;;1.73;0.70;;;;;;;16.12;100.00;93283.44;5092250;28;20263;-77
2021/07/06 02:38:59;;;;;;;1.38;0.90;;;;;;;16.29;100.00;93296.53;5095054;28;20256;-78
2021/07/06 02:41:25;;;;;;;0.68;0.63;;;;;;;16.33;100.00;93286.28;5096110;28;20202;-79
2021/07/06 02:43:52;;;;;;;1.40;0.85;;;;;;;16.55;100.00;93280.97;5095974;28;20202;-76
2021/07/06 02:46:18;;;;;;;2.58;0.75;;;;;;;16.66;100.00;93272.09;5096042;28;20607;-76
2021/07/06 02:48:46;;;;;;;2.95;0.85;;;;;;;16.72;100.00;93267.66;5095811;28;20198;-77
2021/07/06 02:51:16;;;;;;;2.05;1.05;;;;;;;16.86;100.00;93271.50;5095675;28;20263;-78
2021/07/06 02:53:42;;;;;;;1.38;0.82;;;;;;;16.76;100.00;93266.13;5095905;28;20280;-76
2021/07/06 02:56:08;;;;;;;1.73;0.88;;;;;;;16.81;100.00;93274.09;5095830;28;20205;-76
2021/07/06 02:58:35;;;;;;;1.40;0.73;;;;;;;16.87;100.00;93267.84;5095642;28;20225;-76
2021/07/06 03:01:01;;;;;;;1.38;0.77;;;;;;;16.89;100.00;93243.88;5095677;28;20251;-79
2021/07/06 03:03:28;;;;;;;5.45;0.70;;;;;;;16.90;100.00;93254.13;5095440;28;20198;-77
2021/07/06 03:05:55;;;;;;;1.42;0.75;;;;;;;16.87;100.00;93267.84;5095632;28;20205;-77
2021/07/06 03:08:22;;;;;;;2.80;0.80;;;;;;;16.97;100.00;93253.91;5095740;28;20205;-77
2021/07/06 03:10:49;;;;;;;1.63;0.63;;;;;;;17.01;100.00;93263.72;5095535;28;20203;-77
2021/07/06 03:13:16;;;;;;;1.48;0.70;;;;;;;17.09;100.00;93272.22;5095690;28;20584;-76
2021/07/06 03:15:43;;;;;;;2.30;0.70;;;;;;;17.11;100.00;93270.13;5095616;28;20202;-77
2021/07/06 03:18:10;;;;;;;1.55;0.70;;;;;;;17.07;100.00;93266.38;5095117;28;20237;-76
2021/07/06 03:20:37;;;;;;;2.45;0.70;;;;;;;17.09;100.00;93261.69;5095685;28;20237;-76
2021/07/06 03:23:05;;;;;;;1.05;0.82;;;;;;;17.24;100.00;93261.78;5095223;28;20197;-76
2021/07/06 03:25:33;;;;;;;0.82;0.70;;;;;;;17.32;100.00;93266.56;5095290;28;20205;-75
2021/07/06 03:28:00;;;;;;;2.92;0.95;;;;;;;17.38;100.00;93252.34;5094900;28;20237;-77
2021/07/06 03:30:29;;;;;;;1.58;0.70;;;;;;;17.39;100.00;93248.66;5095028;28;20203;-77
2021/07/06 03:32:58;;;;;;;4.00;0.57;;;;;;;17.40;100.00;93249.44;5095243;28;20293;-75
2021/07/06 03:35:24;;;;;;;0.75;0.60;;;;;;;17.37;100.00;93234.16;5094933;28;20202;-78
2021/07/06 03:37:51;;;;;;;1.75;0.70;;;;;;;17.38;100.00;93238.34;5094750;28;20631;-78
2021/07/06 03:40:19;;;;;;;5.40;0.88;;;;;;;17.41;100.00;93226.50;5094880;28;20202;-78
2021/07/06 03:42:46;;;;;;;3.20;0.70;;;;;;;17.48;99.56;93224.44;5094795;28;20205;-79
2021/07/06 03:45:15;;;;;;;1.20;0.80;;;;;;;17.42;100.00;93231.53;5094588;28;20652;-78
2021/07/06 03:47:42;;;;;;;1.40;0.73;;;;;;;17.51;98.32;93224.69;5094607;28;20217;-78
2021/07/06 03:50:17;;;;;;;2.03;0.80;;;;;;;17.53;96.73;93221.81;5094689;28;20203;-79
2021/07/06 03:52:44;;;;;;;2.63;0.60;;;;;;;17.68;94.09;93218.44;5094838;28;20209;-77
2021/07/06 03:55:11;;;;;;;1.50;0.60;;;;;;;17.83;92.49;93225.63;5094651;28;20201;-78
2021/07/06 03:57:39;;;;;;;1.75;0.60;;;;;;;17.84;91.52;93222.72;5094703;28;20225;-77
2021/07/06 04:00:08;;;;;;;1.30;0.50;;;;;;;17.82;90.85;93219.56;5093090;28;20470;-78
2021/07/06 04:02:35;;;;;;;1.10;0.55;;;;;;;17.78;90.98;93204.50;5094509;28;20198;-77
2021/07/06 04:05:03;;;;;;;1.17;0.60;;;;;;;17.90;90.44;93213.00;5094629;28;20285;-77
2021/07/06 04:07:29;;;;;;;5.00;0.93;;;;;;;17.81;90.74;93214.53;5094427;28;20259;-77
2021/07/06 04:09:56;;;;;;;1.10;0.68;;;;;;;17.79;90.67;93217.44;5094263;28;20285;-75
2021/07/06 04:12:23;;;;;;;0.88;0.50;;;;;;;17.70;91.41;93216.31;5094520;28;20212;-76
2021/07/06 04:14:51;;;;;;;1.17;0.50;;;;;;;17.74;91.22;93215.56;5094410;28;20194;-77
2021/07/06 04:17:17;;;;;;;0.82;0.50;;;;;;;17.78;90.93;93218.47;5094164;28;20232;-76
2021/07/06 04:19:44;;;;;;;1.40;0.60;;;;;;;17.77;91.63;93208.97;5094159;28;20194;-80
2021/07/06 04:22:10;;;;;;;3.38;0.50;;;;;;;17.71;92.01;93202.88;5094114;28;20198;-79
2021/07/06 04:24:36;;;;;;;1.00;0.50;;;;;;;17.71;91.99;93202.88;5094011;28;20209;-77
2021/07/06 04:27:04;;;;;;;4.63;1.65;;;;;;;17.76;91.26;93199.47;5093832;28;20198;-78
2021/07/06 04:29:31;;;;;;;1.13;0.60;;;;;;;17.73;92.47;93198.13;5094122;28;20222;-77
2021/07/06 04:31:59;;;;;;;0.80;0.60;;;;;;;17.77;91.40;93198.41;5094072;28;20595;-77
2021/07/06 04:34:25;;;;;;;1.33;0.50;;;;;;;17.84;90.22;93196.31;5091749;28;20194;-78
2021/07/06 04:36:52;;;;;;;1.40;0.63;;;;;;;17.81;92.27;93193.41;5093547;28;20198;-77
2021/07/06 04:39:18;;;;;;;0.63;0.63;;;;;;;17.83;92.01;93193.94;5093631;28;20213;-78
2021/07/06 04:41:45;;;;;;;2.78;0.50;;;;;;;17.91;91.31;93190.81;5085762;28;20202;-78
2021/07/06 04:44:12;;;;;;;2.60;0.50;;;;;;;18.01;90.34;93200.63;5092788;28;20439;-78
2021/07/06 04:46:39;;;;;;;0.50;0.50;;;;;;;18.10;90.05;93197.22;5093884;28;20201;-77
2021/07/06 04:49:07;;;;;;;1.58;0.60;;;;;;;18.15;90.63;93198.28;5093783;28;20201;-76
2021/07/06 04:51:34;;;;;;;2.72;0.60;;;;;;;18.31;88.57;93186.66;5093432;28;20198;-77
2021/07/06 04:54:01;;;;;;;1.30;0.50;;;;;;;18.45;89.15;93187.75;5093515;28;20198;-77
2021/07/06 04:56:28;;;;;;;0.77;0.70;;;;;;;18.56;88.05;93195.69;5093554;28;20825;-76
2021/07/06 04:58:54;;;;;;;4.07;0.52;;;;;;;18.64;88.84;93193.28;5093429;28;20225;-78
2021/07/06 05:01:21;;;;;;;0.50;0.50;;;;;;;18.74;87.11;93189.06;5093066;28;20631;-76
2021/07/06 05:03:49;;;;;;;3.72;0.80;;;;;;;18.82;89.00;93194.63;5093419;28;20201;-75
2021/07/06 05:06:17;;;;;;;2.05;0.50;;;;;;;18.89;89.07;93193.59;5093208;28;20624;-78
2021/07/06 05:08:44;;;;;;;1.33;0.60;;;;;;;18.89;89.03;93183.00;5093396;28;20232;-78
2021/07/06 05:11:10;;;;;;;1.38;0.57;;;;;;;18.91;87.97;93180.88;5093446;28;20225;-77
2021/07/06 05:13:37;;;;;;;1.42;0.80;;;;;;;18.86;88.56;93184.31;5093468;28;20198;-76
2021/07/06 05:16:04;;;;;;;1.00;0.60;;;;;;;18.71;89.17;93171.09;5093098;28;20202;-76
2021/07/06 05:18:30;;;;;;;0.93;0.68;;;;;;;18.68;91.31;93167.94;5093122;28;20577;-79
2021/07/06 05:20:57;;;;;;;1.38;0.60;;;;;;;18.81;88.40;93165.78;5093241;28;20209;-80
2021/07/06 05:23:25;;;;;;;0.90;0.80;;;;;;;18.80;89.91;93170.28;5092957;28;20564;-77
2021/07/06 05:25:51;;;;;;;2.25;0.50;;;;;;;18.81;89.09;93177.16;5093106;28;20198;-78
2021/07/06 05:28:18;;;;;;;1.58;0.70;;;;;;;18.85;88.59;93186.19;5093673;28;20221;-76
2021/07/06 05:30:44;;;;;;;3.55;0.60;;;;;;;18.72;89.71;93191.16;5093223;28;20205;-77
2021/07/06 05:33:11;;;;;;;0.95;0.50;;;;;;;18.64;89.94;93187.22;5092958;28;20198;-79
2021/07/06 05:35:37;;;;;;;1.70;0.80;;;;;;;18.55;90.67;93176.38;5092906;28;20725;-79
2021/07/06 05:38:05;;;;;;;0.57;0.55;;;;;;;18.60;89.56;93181.69;5092713;28;20700;-78
2021/07/06 05:40:38;;;;;;;1.67;0.70;;;;;;;18.81;89.90;93182.44;5093173;28;20198;-76
2021/07/06 05:43:06;;;;;;;1.05;0.70;;;;;;;18.93;88.47;93184.06;5092790;28;20660;-78
2021/07/06 05:45:33;;;;;;;0.80;0.52;;;;;;;19.27;86.41;93199.31;5093045;28;20233;-76
2021/07/06 05:47:59;;;;;;;2.63;0.60;;;;;;;19.29;84.44;93207.81;5092738;28;20205;-77
2021/07/06 05:50:26;;;;;;;1.05;0.68;;;;;;;19.46;85.98;93199.56;5092655;28;20194;-77
2021/07/06 05:52:53;;;;;;;2.08;0.80;;;;;;;19.98;83.64;93200.94;5092834;28;20331;-76
2021/07/06 05:55:19;;;;;;;0.90;0.50;;;;;;;20.34;78.95;93206.84;5092972;28;20202;-76
2021/07/06 05:57:47;;;;;;;1.02;0.60;;;;;;;20.96;77.44;93200.31;5092704;28;20229;-78
2021/07/06 06:00:16;;;;;;;0.63;0.63;;;;;;;21.63;73.61;93213.75;5092686;28;20202;-78
2021/07/06 06:02:42;;;;;;;1.25;0.50;;;;;;;21.54;71.39;93220.75;5092059;28;20232;-77
2021/07/06 06:05:09;;;;;;;2.03;0.60;;;;;;;21.44;73.68;93221.63;5092797;28;20205;-77
2021/07/06 06:07:38;;;;;;;1.70;0.80;;;;;;;21.70;74.07;93224.84;5092566;28;20213;-76
2021/07/06 06:10:06;;;;;;;2.60;1.10;;;;;;;22.35;68.71;93223.53;5092752;28;20206;-77
2021/07/06 06:12:33;;;;;;;5.18;2.20;;;;;;;22.84;66.47;93214.25;5092937;28;20210;-76
2021/07/06 06:15:01;;;;;;;2.22;0.88;;;;;;;22.73;67.88;93220.81;5096459;28;20213;-76
2021/07/06 06:17:27;;;;;;;1.77;0.60;;;;;;;23.23;66.88;93218.47;5096289;28;20198;-77
2021/07/06 06:19:53;;;;;;;2.35;0.80;;;;;;;23.10;68.26;93232.53;5096555;28;20206;-75
2021/07/06 06:22:21;;;;;;;1.67;0.63;;;;;;;22.38;70.47;93238.88;5096513;28;20198;-76
2021/07/06 06:24:48;;;;;;;1.13;0.88;;;;;;;23.00;67.66;93251.28;5096358;28;20201;-76
2021/07/06 06:27:15;;;;;;;1.33;0.82;;;;;;;22.49;68.93;93250.19;5096065;28;20198;-76
2021/07/06 06:29:41;;;;;;;4.82;1.13;;;;;;;22.38;69.71;93232.78;5113474;28;20233;-76
2021/07/06 06:32:09;;;;;;;3.85;0.80;;;;;;;22.37;70.30;93247.97;5116392;28;20660;-76
2021/07/06 06:34:36;;;;;;;11.55;4.72;;;;;;;22.64;69.28;93243.88;5116611;28;20330;-75
2021/07/06 06:37:02;;;;;;;9.82;3.75;;;;;;;22.50;67.79;93241.94;5116187;28;20549;-77
2021/07/06 06:39:29;;;;;;;4.78;2.47;;;;;;;22.31;69.04;93249.09;5116333;28;20225;-76
2021/07/06 06:41:55;;;;;;;3.17;1.60;;;;;;;22.45;68.14;93242.00;5116250;28;20204;-76
2021/07/06 06:44:22;;;;;;;4.85;1.70;;;;;;;22.66;70.75;93244.34;5116044;28;20659;-76
2021/07/06 06:46:48;;;;;;;4.40;1.77;;;;;;;23.08;68.67;93255.97;5116397;28;20202;-76
2021/07/06 06:49:16;;;;;;;5.82;1.48;;;;;;;23.34;68.62;93251.03;5116122;28;20201;-76
2021/07/06 06:51:42;;;;;;;2.28;1.20;;;;;;;24.01;66.10;93255.97;5116068;28;20201;-75
2021/07/06 06:54:09;;;;;;;3.05;1.40;;;;;;;23.61;67.77;93257.47;5116231;28;20194;-76
2021/07/06 06:56:36;;;;;;;2.90;1.42;;;;;;;23.52;65.40;93265.38;5116097;28;20204;-76
2021/07/06 06:59:06;;;;;;;2.28;1.20;;;;;;;23.34;64.52;93264.34;5115873;28;20229;-76
2021/07/06 07:01:33;;;;;;;2.53;1.08;;;;;;;23.50;69.04;93250.75;5116137;28;20288;-76
2021/07/06 07:03:59;;;;;;;3.05;1.40;;;;;;;23.35;67.95;93257.13;5116136;28;20197;-77
2021/07/06 07:06:27;;;;;;;2.42;1.00;;;;;;;23.78;67.20;93256.91;5115863;28;20201;-76
2021/07/06 07:08:53;;;;;;;9.05;1.77;;;;;;;24.15;67.70;93260.50;5115892;28;20201;-75
2021/07/06 07:11:20;;;;;;;2.97;1.42;;;;;;;24.41;68.60;93258.06;5115776;28;20568;-75
2021/07/06 07:13:48;;;;;;;2.30;1.30;;;;;;;25.41;65.65;93256.38;5115609;28;20208;-75
2021/07/06 07:16:15;;;;;;;1.77;0.95;;;;;;;25.33;62.79;93260.59;5115882;28;20198;-76
2021/07/06 07:18:41;;;;;;;2.33;1.35;;;;;;;24.60;64.36;93271.31;5115753;28;20225;-76
2021/07/06 07:21:08;;;;;;;6.32;1.92;;;;;;;24.28;67.60;93258.88;5115723;28;20207;-76
2021/07/06 07:23:36;;;;;;;5.70;1.83;;;;;;;24.11;67.51;93270.16;5115081;28;20201;-79
2021/07/06 07:26:02;;;;;;;2.95;1.55;;;;;;;23.73;66.96;93291.66;5115452;28;20198;-77
2021/07/06 07:28:29;;;;;;;3.95;1.60;;;;;;;23.59;70.13;93287.09;5115533;27;20223;-77
2021/07/06 07:30:55;;;;;;;2.78;1.45;;;;;;;23.53;67.52;93287.47;5135941;27;20205;-78
2021/07/06 07:33:22;;;;;;;1.75;1.05;;;;;;;23.71;69.87;93277.84;5136022;27;20197;-77
2021/07/06 07:35:49;;;;;;;3.70;1.30;;;;;;;23.92;75.30;93276.41;5135910;27;20567;-77
2021/07/06 07:38:15;;;;;;;3.08;1.00;;;;;;;23.90;75.73;93270.59;5135839;27;20220;-77
2021/07/06 07:40:43;;;;;;;1.77;1.10;;;;;;;24.26;71.75;93266.41;5135645;27;20200;-78
2021/07/06 07:43:12;;;;;;;2.13;1.10;;;;;;;24.60;72.15;93257.97;5135669;27;20204;-82
2021/07/06 07:45:39;;;;;;;3.00;1.20;;;;;;;24.60;75.11;93259.84;5127266;27;20200;-80
2021/07/06 07:48:06;;;;;;;1.40;0.88;;;;;;;25.19;70.95;93251.81;5115605;28;20659;-81
2021/07/06 07:50:33;;;;;;;3.15;0.80;;;;;;;25.17;70.14;93251.34;5115265;28;20284;-81
2021/07/06 07:53:04;;;;;;;6.72;1.10;;;;;;;25.45;68.57;93254.69;5115243;28;20284;-83
2021/07/06 07:55:31;;;;;;;3.90;1.02;;;;;;;25.00;65.33;93252.00;5114830;28;20201;-82
2021/07/06 07:57:59;;;;;;;2.05;0.88;;;;;;;25.04;66.18;93251.06;5115346;28;20190;-82
2021/07/06 08:00:33;;;;;;;2.00;1.02;;;;;;;24.96;70.55;93251.03;5116232;28;20208;-82
2021/07/06 08:02:59;;;;;;;1.23;0.70;;;;;;;24.64;69.06;93245.59;5117641;28;20292;-82
2021/07/06 08:05:26;;;;;;;4.25;1.60;;;;;;;24.55;71.07;93256.19;5118399;28;20201;-81
2021/07/06 08:07:55;;;;;;;4.38;2.45;;;;;;;24.25;71.48;93260.28;5114651;28;20288;-78
2021/07/06 08:10:22;;;;;;;3.90;1.00;;;;;;;24.59;70.26;93261.72;5114991;28;20213;-80
2021/07/06 08:12:48;;;;;;;1.70;0.50;;;;;;;24.51;75.38;93273.09;5115589;28;20193;-82
2021/07/06 08:15:18;;;;;;;1.70;0.68;;;;;;;23.98;70.88;93282.41;5115630;28;20210;-78
2021/07/06 08:17:44;;;;;;;2.10;0.52;;;;;;;24.01;71.99;93285.31;5115126;28;20679;-80
2021/07/06 08:20:14;;;;;;;0.82;0.50;;;;;;;24.18;71.92;93275.88;5115396;28;20229;-81
2021/07/06 08:22:42;;;;;;;2.25;0.90;;;;;;;24.33;67.48;93294.28;5115534;28;20548;-82
2021/07/06 08:25:13;;;;;;;1.25;0.60;;;;;;;24.32;66.80;93287.34;5115401;28;20254;-82
2021/07/06 08:27:39;;;;;;;2.35;0.65;;;;;;;24.02;69.79;93294.09;5116613;27;20197;-79
2021/07/06 08:30:07;;;;;;;0.68;0.55;;;;;;;24.32;71.14;93308.69;5135199;27;20222;-80
2021/07/06 08:32:35;;;;;;;1.48;0.40;;;;;;;24.23;68.13;93326.50;5135752;27;20540;-81
2021/07/06 08:35:03;;;;;;;1.70;0.77;;;;;;;24.05;67.73;93311.34;5134551;27;20203;-82
2021/07/06 08:37:30;;;;;;;1.38;0.82;;;;;;;24.17;66.20;93322.34;5134779;27;20197;-79
2021/07/06 08:39:56;;;;;;;1.52;0.93;;;;;;;24.28;66.29;93322.91;5134626;27;20224;-80
2021/07/06 08:42:23;;;;;;;0.40;0.40;;;;;;;24.74;66.40;93332.69;5135112;27;20711;-81
2021/07/06 08:44:51;;;;;;;2.15;0.80;;;;;;;24.94;65.79;93334.91;5135324;27;20204;-80
2021/07/06 08:47:25;;;;;;;4.07;0.70;;;;;;;25.22;64.42;93328.69;5135340;27;20208;-79
2021/07/06 08:49:54;;;;;;;1.35;0.70;;;;;;;25.25;64.16;93322.75;5134863;27;20200;-81
2021/07/06 08:52:23;;;;;;;0.52;0.40;;;;;;;25.12;65.29;93343.09;5134598;27;20236;-80
2021/07/06 08:54:51;;;;;;;0.63;0.60;;;;;;;24.87;66.32;93358.56;5134654;27;20197;-80
2021/07/06 08:57:22;;;;;;;1.27;0.63;;;;;;;24.77;66.87;93366.03;5134713;27;20193;-80
2021/07/06 08:59:49;;;;;;;3.53;1.05;;;;;;;24.38;67.83;93386.75;5134887;27;20582;-81
2021/07/06 09:02:21;;;;;;;1.30;0.70;;;;;;;24.58;65.96;93395.50;5134918;27;20192;-81
2021/07/06 09:04:51;;;;;;;3.45;0.63;;;;;;;24.53;68.83;93383.81;5135559;27;20287;-80
2021/07/06 09:07:22;;;;;;;2.03;0.63;;;;;;;24.57;66.08;93386.69;5133973;27;20525;-79
2021/07/06 09:09:51;;;;;;;1.15;0.70;;;;;;;24.94;65.70;93392.88;5134500;27;20279;-81
2021/07/06 09:12:19;;;;;;;1.70;0.80;;;;;;;24.47;66.52;93387.66;5134848;27;20197;-81
2021/07/06 09:14:49;;;;;;;1.95;0.75;;;;;;;24.98;70.25;93391.22;5134219;27;20207;-80
2021/07/06 09:17:19;;;;;;;1.98;0.80;;;;;;;24.72;65.97;93401.63;5134501;27;20192;-80
2021/07/06 09:19:50;;;;;;;1.30;0.80;;;;;;;25.12;65.63;93396.50;5134322;27;20657;-81
2021/07/06 09:22:24;;;;;;;2.78;0.80;;;;;;;25.10;67.49;93409.38;5134108;27;20200;-81
2021/07/06 09:24:58;;;;;;;0.80;0.75;;;;;;;24.61;66.63;93409.03;5134673;27;20563;-80
2021/07/06 09:27:34;;;;;;;0.88;0.70;;;;;;;24.40;68.80;93413.97;5134673;27;20200;-81
2021/07/06 09:30:16;;;;;;;3.08;0.70;;;;;;;23.98;71.04;93419.25;5093437;28;20303;-79
2021/07/06 09:32:45;;;;;;;2.63;0.90;;;;;;;23.66;73.13;93420.00;5094314;28;20237;-82
2021/07/06 09:35:22;;;;;;;1.50;0.82;;;;;;;23.59;73.96;93408.91;5093931;28;20204;-80
2021/07/06 09:37:52;;;;;;;3.42;1.00;;;;;;;23.43;74.64;93424.34;5093564;28;20569;-80
2021/07/06 09:40:30;;;;;;;1.70;0.90;;;;;;;23.85;74.69;93429.84;5093781;28;20225;-79
2021/07/06 09:43:20;;;;;;;2.85;1.20;;;;;;;23.54;73.98;93425.78;5093220;28;20198;-82
2021/07/06 09:45:52;;;;;;;3.65;1.20;;;;;;;23.13;75.56;93418.34;5092840;28;20213;-80
2021/07/06 09:48:18;;;;;;;2.63;1.15;;;;;;;23.57;74.97;93422.53;5096435;28;20198;-78
2021/07/06 09:50:51;;;;;;;1.73;1.10;;;;;;;23.74;75.84;93427.31;5115871;27;20200;-81
2021/07/06 09:53:31;;;;;;;2.60;1.10;;;;;;;23.46;74.13;93413.09;5138083;27;20594;-81
2021/07/06 09:56:00;;;;;;;1.70;1.00;;;;;;;23.25;74.75;93402.75;5138215;27;20200;-79
2021/07/06 09:58:26;;;;;;;2.03;1.10;;;;;;;23.24;73.61;93408.38;5129095;27;20207;-79
2021/07/06 10:00:53;;;;;;;1.60;1.20;;;;;;;23.52;73.67;93403.94;5137868;27;20228;-78
2021/07/06 10:03:23;;;;;;;1.40;0.98;;;;;;;23.76;73.61;93390.50;5138460;27;20211;-80
2021/07/06 10:05:58;;;;;;;1.05;0.90;;;;;;;23.52;72.28;93387.97;5126732;27;20197;-82
2021/07/06 10:08:32;;;;;;;1.25;1.00;;;;;;;23.60;72.54;93394.53;5116363;28;20197;-79
2021/07/06 10:10:59;;;;;;;1.55;1.10;;;;;;;23.70;73.37;93393.53;5116532;28;20666;-77
2021/07/06 10:13:27;;;;;;;2.22;1.40;;;;;;;23.52;71.94;93381.84;5116538;28;20269;-79
2021/07/06 10:15:54;;;;;;;1.30;1.02;;;;;;;24.00;73.16;93387.72;5116009;28;20202;-79
2021/07/06 10:18:21;;;;;;;2.38;1.02;;;;;;;23.56;71.24;93378.28;5116328;28;20225;-80
2021/07/06 10:20:48;;;;;;;6.13;1.30;;;;;;;23.86;73.04;93370.91;5115951;28;20588;-79
2021/07/06 10:23:19;;;;;;;3.33;1.33;;;;;;;24.39;75.89;93375.78;5115919;28;20197;-82
2021/07/06 10:25:54;;;;;;;1.27;1.13;;;;;;;25.07;71.43;93384.06;5115908;28;20292;-77
2021/07/06 10:28:23;;;;;;;2.60;1.10;;;;;;;24.86;72.81;93380.25;5133074;27;20438;-78
2021/07/06 10:30:53;;;;;;;1.85;0.90;;;;;;;25.40;69.64;93391.91;5137249;27;20208;-78
2021/07/06 10:33:29;;;;;;;1.88;0.90;;;;;;;25.48;67.90;93411.78;5136967;27;20197;-81
2021/07/06 10:35:58;;;;;;;2.15;1.15;;;;;;;24.94;67.77;93401.69;5137319;27;20214;-78
2021/07/06 10:38:44;;;;;;;0.88;0.73;;;;;;;25.36;71.00;93403.50;5137122;27;20265;-78
2021/07/06 10:41:19;;;;;;;2.63;1.30;;;;;;;25.37;68.98;93403.19;5136349;27;20295;-77
2021/07/06 10:43:56;;;;;;;1.15;1.05;;;;;;;24.60;72.09;93409.34;5136848;27;20283;-78
2021/07/06 10:46:48;;;;;;;4.82;1.50;;;;;;;23.99;74.63;93422.69;5136620;27;20201;-79
2021/07/06 10:49:27;;;;;;;1.92;1.00;;;;;;;24.53;71.89;93410.50;5126225;27;20205;-76
2021/07/06 10:51:54;;;;;;;2.05;1.10;;;;;;;24.47;71.48;93403.69;5136464;27;20212;-76
2021/07/06 10:54:32;;;;;;;3.53;1.25;;;;;;;25.06;73.79;93409.22;5135882;27;20216;-76
2021/07/06 10:57:14;;;;;;;1.20;1.00;;;;;;;25.73;70.79;93417.63;5135865;27;20651;-76
2021/07/06 10:59:41;;;;;;;4.95;1.30;;;;;;;24.20;73.82;93433.81;5134992;27;20228;-76
2021/07/06 11:02:08;;;;;;;3.42;1.67;;;;;;;23.71;76.07;93422.56;5136524;27;20193;-76
2021/07/06 11:05:04;;;;;;;2.22;1.38;;;;;;;23.72;78.78;93418.84;5136105;27;20193;-78
2021/07/06 11:08:01;;;;;;;4.90;2.03;;;;;;;23.78;80.41;93412.34;5135771;27;20197;-77
2021/07/06 11:10:42;;;;;;;2.88;1.58;;;;;;;23.48;79.48;93415.47;5135691;27;20674;-76
2021/07/06 11:13:21;;;;;;;1.75;1.50;;;;;;;22.77;83.23;93407.38;5135671;27;20534;-77
2021/07/06 11:15:50;;;;;;;3.92;1.50;;;;;;;22.30;86.55;93409.75;5135813;27;20284;-78
2021/07/06 11:18:38;;;;;;;4.50;1.42;;;;;;;21.98;91.29;93437.69;5136346;27;20200;-78
2021/07/06 11:21:37;;;;;;;1.90;1.38;;;;;;;21.73;93.11;93431.56;5136188;27;20224;-78
2021/07/06 11:24:17;;;;;;;5.40;1.98;;;;;;;21.65;93.12;93444.63;5136270;27;20193;-76
2021/07/06 11:26:47;;;;;;;2.03;1.55;;;;;;;22.03;95.73;93458.91;5136006;27;20291;-77
2021/07/06 11:29:26;;;;;;;2.05;1.48;;;;;;;22.07;94.03;93475.91;5135769;27;20335;-79
2021/07/06 11:32:11;;;;;;;2.33;1.70;;;;;;;22.15;93.06;93483.28;5135941;27;20288;-78
2021/07/06 11:34:41;;;;;;;3.75;1.75;;;;;;;21.95;95.55;93480.81;5135934;27;20248;-77
2021/07/06 11:37:16;;;;;;;1.88;1.50;;;;;;;21.70;98.37;93487.91;5135893;27;20207;-76
2021/07/06 11:39:50;;;;;;;2.85;1.73;;;;;;;21.52;100.00;93499.97;5135827;27;20579;-77